Portada
METAR-TAF:

METAR-TAF

Aeroports :

Aeroport Internacional de Xangai-Hongqiao

Xangai-Hongqiao, Xina

latitud: 31-10N, longitud: 121-26E, altitud: 7 m

Observació

L'informe es va fer fa 28 minuts, a les 19:00 UTC
Vent 8 kt del Sud/Sud-Est
Temperatura 22°C
Humitat 78%
Pressió 1007 hPa
Visibilitat 10 km o més
sense núvols per sota de 1500 mi sense presència de cumulonimbus.

METAR: ZSSS 011900Z 16004MPS CAVOK 22/18 Q1007 NOSIG

Hora: 03:28 (19:28 UTC)

Pronòstic

L'informe es va fer fa 4 hores i 20 minuts, a les 15:08 UTC
Pronòstic vàlid del 01 a les 18 UTC al 02 a les 18 UTC
Vent 8 kt del Sud
Visibilitat: 6000 m
Núvols disperses a una alçada de 4000 ft

TAF: ZSSS 011508Z 0118/0218 17004MPS 6000 SCT040 TX31/0206Z TN23/0121Z

Observacions i pronòstics meteorològics de més de 4000 aeroports (METAR i TAF).

Les estacions disponibles són els punts grocs i vermells al mapa.

Posi el ratolí al punt desitjat per veure el nom de l'estació.

Feu clic per veure les observacions i els pronòstics meteorològics.

Per canviar el mapa: feu clic els botons verds amb una creu de color negre per apropar; al botó verd amb un guió per allunyar la imatge; o en les fletxes verdes per a mapes adjacents.


METAR-TAF: